Time;durP1;ratioP1;P1;durP2;ratioP2;P2;SDS_P1;SDS_P2;PMS_P1;PMS_P2;Temp;Humidity;BMP_temperature;BMP_pressure;BME280_temperature;BME280_humidity;BME280_pressure;Samples;Min_cycle;Max_cycle;Signal;HPM_P1;HPM_P2
2022/03/10 00:02:06;;;;;;;179.68;101.40;;;26.50;2201.60;;;;;;4916601;29;20078;-83
2022/03/10 00:04:36;;;;;;;192.75;106.47;;;26.40;2201.60;;;;;;4916792;29;20027;-83
2022/03/10 00:07:05;;;;;;;198.25;117.85;;;26.20;2201.60;;;;;;4916262;29;20087;-84
2022/03/10 00:09:32;;;;;;;180.82;107.82;;;26.20;2201.60;;;;;;4916571;29;20070;-83
2022/03/10 00:11:59;;;;;;;181.02;104.75;;;26.40;2201.60;;;;;;4916689;29;20065;-84
2022/03/10 00:14:25;;;;;;;177.57;97.38;;;26.30;2201.60;;;;;;4916470;29;20027;-84
2022/03/10 00:16:51;;;;;;;166.45;99.30;;;26.50;2201.60;;;;;;4916528;29;20024;-82
2022/03/10 00:19:18;;;;;;;180.05;112.55;;;26.50;2201.60;;;;;;4916564;29;20024;-82
2022/03/10 00:21:45;;;;;;;158.95;97.15;;;26.30;2201.60;;;;;;4916286;29;20032;-82
2022/03/10 00:24:11;;;;;;;149.35;94.18;;;51.40;2227.20;;;;;;4916532;29;20028;-83
2022/03/10 00:26:37;;;;;;;128.52;76.80;;;26.50;2201.60;;;;;;4916370;29;20076;-83
2022/03/10 00:29:06;;;;;;;159.10;90.40;;;26.50;2201.60;;;;;;4916047;29;20032;-83
2022/03/10 00:31:32;;;;;;;162.25;88.78;;;26.50;2201.60;;;;;;4916313;29;20024;-83
2022/03/10 00:33:58;;;;;;;145.00;83.60;;;26.50;2201.60;;;;;;4917936;29;20034;-83
2022/03/10 00:36:24;;;;;;;163.20;95.85;;;51.30;2227.20;;;;;;4916029;29;20067;-84
2022/03/10 00:38:51;;;;;;;160.73;89.72;;;26.50;2201.60;;;;;;4916379;29;20039;-83
2022/03/10 00:41:17;;;;;;;162.45;93.68;;;26.50;2201.60;;;;;;4916430;29;20380;-81
2022/03/10 00:43:43;;;;;;;226.95;141.35;;;51.20;2227.20;;;;;;4915989;29;20479;-82
2022/03/10 00:46:08;;;;;;;134.57;81.13;;;51.20;2227.20;;;;;;4916285;29;20068;-83
2022/03/10 00:48:36;;;;;;;97.05;56.20;;;51.20;2227.20;;;;;;4915981;29;20039;-81
2022/03/10 00:51:02;;;;;;;94.07;54.33;;;51.20;2227.20;;;;;;4917444;29;20055;-83
2022/03/10 00:53:27;;;;;;;72.05;44.45;;;51.30;2227.20;;;;;;4916159;29;20055;-83
2022/03/10 00:55:53;;;;;;;82.85;51.47;;;26.50;2201.60;;;;;;4929418;29;20043;-81
2022/03/10 00:58:19;;;;;;;96.43;57.47;;;26.40;2201.60;;;;;;4940744;29;20025;-82
2022/03/10 01:00:45;;;;;;;95.18;58.28;;;26.50;2201.60;;;;;;4940623;29;20012;-81
2022/03/10 01:03:11;;;;;;;92.68;54.38;;;26.50;2201.60;;;;;;4940486;29;20008;-79
2022/03/10 01:05:36;;;;;;;121.13;71.53;;;26.50;2201.60;;;;;;4922870;29;20024;-82
2022/03/10 01:08:02;;;;;;;130.27;77.90;;;26.50;2201.60;;;;;;4917975;29;20138;-82
2022/03/10 01:10:28;;;;;;;148.55;83.50;;;26.50;2201.60;;;;;;4920605;29;20083;-82
2022/03/10 01:12:54;;;;;;;115.65;69.95;;;51.30;2227.20;;;;;;4922479;29;20032;-82
2022/03/10 01:15:23;;;;;;;115.05;68.53;;;51.30;2227.20;;;;;;4920512;29;20115;-81
2022/03/10 01:17:49;;;;;;;114.53;72.25;;;51.40;2227.20;;;;;;4920034;29;20458;-83
2022/03/10 01:20:17;;;;;;;117.95;73.97;;;51.40;2227.20;;;;;;4920368;29;20153;-82
2022/03/10 01:22:42;;;;;;;119.38;71.63;;;51.20;2227.20;;;;;;4919824;29;20032;-83
2022/03/10 01:25:09;;;;;;;114.35;70.70;;;51.20;2227.20;;;;;;4919564;29;20028;-83
2022/03/10 01:27:36;;;;;;;95.20;61.33;;;51.20;2227.20;;;;;;4919466;29;20525;-83
2022/03/10 01:30:03;;;;;;;93.20;58.28;;;51.30;2227.20;;;;;;4920848;29;20092;-84
2022/03/10 01:32:29;;;;;;;96.85;56.08;;;51.30;2227.20;;;;;;4920370;29;20032;-82
2022/03/10 01:34:55;;;;;;;96.03;60.15;;;51.30;2227.20;;;;;;4919423;29;20414;-82
2022/03/10 01:37:21;;;;;;;112.88;66.07;;;51.30;2227.20;;;;;;4918659;29;20075;-81
2022/03/10 01:39:47;;;;;;;90.03;52.72;;;51.40;2227.20;;;;;;4920690;29;20063;-82
2022/03/10 01:42:14;;;;;;;83.13;50.15;;;26.50;2201.60;;;;;;4919295;29;20038;-83
2022/03/10 01:44:40;;;;;;;83.00;50.00;;;26.30;2201.60;;;;;;4919181;29;20152;-83
2022/03/10 01:47:06;;;;;;;86.68;51.85;;;26.30;2201.60;;;;;;4919080;29;20403;-82
2022/03/10 01:49:33;;;;;;;92.93;55.15;;;26.30;2201.60;;;;;;4920457;29;20036;-82
2022/03/10 01:52:00;;;;;;;105.93;61.10;;;26.20;2201.60;;;;;;4918871;29;20024;-84
2022/03/10 01:54:26;;;;;;;110.43;72.35;;;26.20;2201.60;;;;;;4919074;29;20060;-83
2022/03/10 01:56:52;;;;;;;154.23;91.00;;;26.10;2201.60;;;;;;4918894;29;20028;-82
2022/03/10 01:59:20;;;;;;;119.72;72.00;;;26.20;2201.60;;;;;;4918648;29;20123;-83
2022/03/10 02:01:46;;;;;;;95.88;55.88;;;26.20;2201.60;;;;;;4918916;29;20028;-82
2022/03/10 02:04:12;;;;;;;109.38;60.75;;;26.00;2201.60;;;;;;4918748;29;20035;-81
2022/03/10 02:06:38;;;;;;;107.85;62.30;;;26.20;2201.60;;;;;;4918594;29;20109;-83
2022/03/10 02:11:50;;;;;;;72.68;43.08;;;26.10;2201.60;;;;;;4920132;29;20031;-82
2022/03/10 02:20:00;;;;;;;74.90;44.60;;;26.30;2201.60;;;;;;4897397;29;20119;-82
2022/03/10 02:22:26;;;;;;;74.10;43.63;;;26.40;2201.60;;;;;;4918371;29;20119;-82
2022/03/10 02:24:53;;;;;;;72.43;44.90;;;26.40;2201.60;;;;;;4918363;29;20032;-81
2022/03/10 02:27:21;;;;;;;78.78;52.28;;;26.50;2201.60;;;;;;4918233;29;20390;-82
2022/03/10 02:29:55;;;;;;;90.72;54.10;;;26.50;2201.60;;;;;;4919786;29;20043;-81
2022/03/10 02:32:21;;;;;;;82.13;48.25;;;26.40;2201.60;;;;;;4918414;29;20051;-80
2022/03/10 02:34:49;;;;;;;87.78;53.78;;;26.20;2201.60;;;;;;4918283;29;20027;-82
2022/03/10 02:37:15;;;;;;;96.95;58.22;;;26.20;2201.60;;;;;;4918178;29;20028;-82
2022/03/10 02:39:42;;;;;;;90.25;55.53;;;26.30;2201.60;;;;;;4918232;29;20032;-80
2022/03/10 02:42:09;;;;;;;91.47;56.50;;;26.40;2201.60;;;;;;4917941;29;20035;-80
2022/03/10 02:44:41;;;;;;;87.13;50.25;;;26.40;2201.60;;;;;;4918172;29;20159;-82
2022/03/10 02:47:07;;;;;;;80.07;49.30;;;26.20;2201.60;;;;;;4918078;29;20454;-81
2022/03/10 02:49:33;;;;;;;76.75;46.63;;;26.20;2201.60;;;;;;4917818;29;20039;-82
2022/03/10 02:51:58;;;;;;;74.45;47.78;;;26.30;2201.60;;;;;;4919140;29;20155;-80
2022/03/10 02:54:24;;;;;;;86.97;53.97;;;26.30;2201.60;;;;;;4918012;29;20021;-83
2022/03/10 02:56:50;;;;;;;86.70;50.40;;;26.10;2201.60;;;;;;4918049;29;20024;-81
2022/03/10 02:59:16;;;;;;;91.10;56.65;;;26.20;2201.60;;;;;;4918039;29;20031;-81
2022/03/10 03:01:42;;;;;;;86.22;53.00;;;26.30;2201.60;;;;;;4917646;29;20055;-81
2022/03/10 03:04:08;;;;;;;83.53;49.13;;;26.40;2201.60;;;;;;4917669;29;20055;-80
2022/03/10 03:06:34;;;;;;;83.70;48.63;;;26.30;2201.60;;;;;;4917609;29;20039;-81
2022/03/10 03:08:59;;;;;;;82.97;47.55;;;26.30;2201.60;;;;;;4918786;29;20470;-79
2022/03/10 03:11:25;;;;;;;81.07;47.78;;;26.40;2201.60;;;;;;4919079;29;20486;-81
2022/03/10 03:13:51;;;;;;;82.88;50.63;;;26.30;2201.60;;;;;;4917764;29;20032;-82
2022/03/10 03:16:17;;;;;;;96.70;57.80;;;26.20;2201.60;;;;;;4917377;29;20029;-83
2022/03/10 03:18:43;;;;;;;91.35;55.63;;;26.10;2201.60;;;;;;4917698;29;20050;-80
2022/03/10 03:21:09;;;;;;;95.80;56.65;;;26.00;2201.60;;;;;;4917688;29;20458;-81
2022/03/10 03:23:35;;;;;;;96.93;59.83;;;26.10;2201.60;;;;;;4918504;29;20107;-81
2022/03/10 03:26:01;;;;;;;82.85;52.85;;;26.10;2201.60;;;;;;4918946;29;20024;-80
2022/03/10 03:28:26;;;;;;;100.38;57.97;;;26.10;2201.60;;;;;;4917321;29;20479;-81
2022/03/10 03:30:52;;;;;;;101.88;61.35;;;26.10;2201.60;;;;;;4918835;29;20028;-82
2022/03/10 03:33:18;;;;;;;107.00;61.25;;;26.20;2201.60;;;;;;4916920;29;20020;-81
2022/03/10 03:35:44;;;;;;;102.60;63.13;;;26.20;2201.60;;;;;;4917354;29;20035;-80
2022/03/10 03:38:11;;;;;;;108.38;65.30;;;26.20;2201.60;;;;;;4917209;29;20040;-80
2022/03/10 03:40:37;;;;;;;96.50;55.88;;;26.20;2201.60;;;;;;4917344;29;20031;-83
2022/03/10 03:43:03;;;;;;;69.25;42.17;;;26.10;2201.60;;;;;;4917278;29;20020;-78
2022/03/10 03:45:29;;;;;;;61.95;37.70;;;25.90;2201.60;;;;;;4916968;29;20032;-80
2022/03/10 03:47:55;;;;;;;64.07;40.63;;;25.80;2201.60;;;;;;4918399;29;20111;-81
2022/03/10 03:50:21;;;;;;;73.90;44.10;;;25.90;2201.60;;;;;;4916834;29;20068;-83
2022/03/10 03:52:47;;;;;;;67.95;40.03;;;25.90;2201.60;;;;;;4917114;29;20020;-82
2022/03/10 03:55:13;;;;;;;77.55;43.80;;;26.00;2201.60;;;;;;4916907;29;20031;-82
2022/03/10 03:57:39;;;;;;;86.10;49.30;;;26.10;2201.60;;;;;;4918080;29;20537;-82
2022/03/10 04:00:08;;;;;;;79.85;46.47;;;26.50;2201.60;;;;;;4917073;29;20344;-83
2022/03/10 04:02:33;;;;;;;92.95;52.08;;;26.10;2201.60;;;;;;4917075;29;20064;-80
2022/03/10 04:04:59;;;;;;;91.95;51.28;;;26.00;2201.60;;;;;;4916889;29;20060;-81
2022/03/10 04:07:25;;;;;;;91.03;51.42;;;26.10;2201.60;;;;;;4916659;29;20477;-81
2022/03/10 04:09:51;;;;;;;81.47;51.75;;;26.20;2201.60;;;;;;4917041;29;20027;-82
2022/03/10 04:12:17;;;;;;;84.38;47.58;;;26.20;2201.60;;;;;;4916613;29;20114;-82
2022/03/10 04:14:42;;;;;;;83.60;51.72;;;26.30;2201.60;;;;;;4916785;29;20407;-83
2022/03/10 04:17:08;;;;;;;81.32;47.67;;;26.20;2201.60;;;;;;4916524;29;20024;-83
2022/03/10 04:19:34;;;;;;;79.28;47.17;;;26.30;2201.60;;;;;;4916541;29;20084;-81
2022/03/10 04:22:00;;;;;;;91.63;54.30;;;26.20;2201.60;;;;;;4917862;29;20119;-83
2022/03/10 04:24:26;;;;;;;80.43;49.92;;;26.00;2201.60;;;;;;4919777;29;20020;-83
2022/03/10 04:26:52;;;;;;;78.72;50.78;;;25.90;2201.60;;;;;;4916120;29;20024;-83
2022/03/10 04:29:18;;;;;;;88.18;52.95;;;25.90;2201.60;;;;;;4916295;29;20035;-83
2022/03/10 04:31:44;;;;;;;105.43;54.40;;;25.90;2201.60;;;;;;4917458;29;20459;-83
2022/03/10 04:34:10;;;;;;;80.30;45.88;;;26.00;2201.60;;;;;;4917687;29;20083;-84
2022/03/10 04:36:36;;;;;;;85.22;49.70;;;26.10;2201.60;;;;;;4916289;29;20415;-82
2022/03/10 04:39:03;;;;;;;92.68;53.15;;;26.00;2201.60;;;;;;4916345;29;20115;-84
2022/03/10 04:41:29;;;;;;;117.60;62.05;;;25.90;2201.60;;;;;;4917336;29;20168;-81
2022/03/10 04:43:54;;;;;;;138.35;68.55;;;25.90;2201.60;;;;;;4915848;29;20142;-80
2022/03/10 04:46:22;;;;;;;119.88;64.13;;;26.00;2201.60;;;;;;4917180;29;20024;-82
2022/03/10 04:48:48;;;;;;;91.30;50.28;;;26.20;2201.60;;;;;;4916146;29;20028;-81
2022/03/10 04:51:13;;;;;;;96.07;52.75;;;26.20;2201.60;;;;;;4917584;29;20481;-82
2022/03/10 04:53:40;;;;;;;105.97;58.17;;;26.10;2201.60;;;;;;4916161;29;20024;-83
2022/03/10 04:56:07;;;;;;;109.20;60.22;;;26.20;2201.60;;;;;;4916256;29;20028;-82
2022/03/10 04:58:32;;;;;;;115.47;65.97;;;26.10;2201.60;;;;;;4916318;29;20155;-82
2022/03/10 05:00:58;;;;;;;104.20;65.90;;;26.10;2201.60;;;;;;4915762;29;20044;-83
2022/03/10 05:03:24;;;;;;;123.10;73.88;;;26.20;2201.60;;;;;;4916113;29;20116;-83
2022/03/10 05:05:50;;;;;;;120.90;72.72;;;26.00;2201.60;;;;;;4916349;29;20058;-82
2022/03/10 05:08:16;;;;;;;372.17;151.50;;;25.90;2201.60;;;;;;4915305;29;20052;-83
2022/03/10 05:10:42;;;;;;;287.60;126.57;;;26.00;2201.60;;;;;;4915972;29;20024;-82
2022/03/10 05:13:07;;;;;;;150.77;77.22;;;26.20;2201.60;;;;;;4915683;29;20561;-83
2022/03/10 05:15:33;;;;;;;112.10;62.83;;;26.20;2201.60;;;;;;4915812;29;20036;-81
2022/03/10 05:18:01;;;;;;;84.30;52.40;;;26.20;2201.60;;;;;;4916028;29;20481;-83
2022/03/10 05:20:29;;;;;;;87.65;54.80;;;26.10;2201.60;;;;;;4915864;29;20024;-79
2022/03/10 05:22:57;;;;;;;83.70;55.58;;;26.10;2201.60;;;;;;4915754;29;20111;-82
2022/03/10 05:25:30;;;;;;;79.88;50.35;;;26.00;2201.60;;;;;;4915881;29;20024;-83
2022/03/10 05:27:56;;;;;;;94.78;57.28;;;26.00;2201.60;;;;;;4915835;29;20032;-83
2022/03/10 05:30:22;;;;;;;90.68;56.90;;;26.00;2201.60;;;;;;4915647;29;20028;-81
2022/03/10 05:32:48;;;;;;;110.10;61.80;;;26.00;2201.60;;;;;;4915867;29;20024;-83
2022/03/10 05:35:15;;;;;;;92.88;54.47;;;26.00;2201.60;;;;;;4917190;29;20103;-82
2022/03/10 05:37:43;;;;;;;120.00;68.03;;;26.00;2201.60;;;;;;4915567;29;20032;-83
2022/03/10 05:40:11;;;;;;;130.82;74.07;;;26.10;2201.60;;;;;;4917100;29;20024;-83
2022/03/10 05:42:39;;;;;;;119.18;71.43;;;26.10;2201.60;;;;;;4915413;29;20028;-83
2022/03/10 05:45:06;;;;;;;93.88;61.45;;;26.00;2201.60;;;;;;4915774;29;20028;-81
2022/03/10 05:47:32;;;;;;;108.95;67.20;;;26.10;2201.60;;;;;;4915609;29;20032;-82
2022/03/10 05:49:58;;;;;;;118.88;67.13;;;26.20;2201.60;;;;;;4915125;29;20385;-82
2022/03/10 05:52:23;;;;;;;146.73;81.85;;;26.20;2201.60;;;;;;4915686;29;20024;-84
2022/03/10 05:54:49;;;;;;;106.53;65.13;;;26.20;2201.60;;;;;;4915963;29;20463;-80
2022/03/10 05:57:15;;;;;;;103.85;60.38;;;26.20;2201.60;;;;;;4918586;29;20020;-82
2022/03/10 05:59:41;;;;;;;105.80;64.15;;;26.20;2201.60;;;;;;4919395;29;20035;-86
2022/03/10 06:02:07;;;;;;;96.68;58.85;;;26.20;2201.60;;;;;;4919232;29;20117;-83
2022/03/10 06:04:33;;;;;;;98.15;57.88;;;26.30;2201.60;;;;;;4918870;29;20075;-86
2022/03/10 06:07:00;;;;;;;104.50;62.90;;;26.30;2201.60;;;;;;4918941;29;20028;-82
2022/03/10 06:09:26;;;;;;;142.40;82.20;;;26.30;2201.60;;;;;;4920702;29;20367;-85
2022/03/10 06:11:51;;;;;;;131.70;81.10;;;26.40;2201.60;;;;;;4920379;29;20031;-87
2022/03/10 06:14:18;;;;;;;128.63;80.03;;;26.40;2201.60;;;;;;4919199;29;20032;-86
2022/03/10 06:16:44;;;;;;;128.48;82.20;;;26.40;2201.60;;;;;;4919188;29;20024;-86
2022/03/10 06:19:10;;;;;;;131.88;85.25;;;26.50;2201.60;;;;;;4918508;29;20039;-82
2022/03/10 06:21:38;;;;;;;127.75;79.80;;;51.30;2227.20;;;;;;4918637;29;20364;-81
2022/03/10 06:24:04;;;;;;;115.90;71.80;;;51.20;2227.20;;;;;;4918050;29;20114;-84
2022/03/10 06:26:30;;;;;;;119.82;76.32;;;51.20;2227.20;;;;;;4918532;29;20024;-84
2022/03/10 06:28:56;;;;;;;112.03;68.60;;;51.20;2227.20;;;;;;4918015;29;20039;-83
2022/03/10 06:31:24;;;;;;;116.95;73.55;;;26.50;2201.60;;;;;;4917225;29;20028;-83
2022/03/10 06:33:51;;;;;;;181.15;127.65;;;26.50;2201.60;;;;;;4918125;29;20025;-82
2022/03/10 06:36:18;;;;;;;194.75;130.40;;;26.40;2201.60;;;;;;4920055;29;20087;-82
2022/03/10 06:38:43;;;;;;;197.18;125.55;;;26.50;2201.60;;;;;;4921910;29;20099;-80
2022/03/10 06:41:09;;;;;;;193.88;120.80;;;26.50;2201.60;;;;;;4943152;29;20039;-82
2022/03/10 06:43:35;;;;;;;180.23;103.80;;;51.20;2227.20;;;;;;4921917;29;20025;-81
2022/03/10 06:46:01;;;;;;;106.53;67.53;;;51.20;2227.20;;;;;;4918577;29;20024;-82
2022/03/10 06:48:26;;;;;;;129.75;81.70;;;51.30;2227.20;;;;;;4918861;29;20031;-82
2022/03/10 06:50:52;;;;;;;109.13;72.95;;;51.20;2227.20;;;;;;4918298;29;20028;-81
2022/03/10 06:53:18;;;;;;;111.63;75.63;;;51.40;2227.20;;;;;;4918171;29;20407;-82
2022/03/10 06:55:44;;;;;;;118.72;77.65;;;51.40;2227.20;;;;;;4918726;29;20028;-82
2022/03/10 06:58:10;;;;;;;104.95;72.07;;;51.50;2227.20;;;;;;4918181;29;20518;-79
2022/03/10 07:00:36;;;;;;;109.22;70.30;;;51.40;2227.20;;;;;;4918065;29;20084;-81
2022/03/10 07:03:02;;;;;;;117.85;82.03;;;51.40;2227.20;;;;;;4917884;29;20032;-82
2022/03/10 07:05:28;;;;;;;107.45;77.30;;;51.40;2227.20;;;;;;4917703;29;20048;-83
2022/03/10 07:07:54;;;;;;;105.18;68.55;;;51.50;2227.20;;;;;;4916512;29;20044;-80
2022/03/10 07:10:20;;;;;;;120.47;79.78;;;51.40;2227.20;;;;;;4917886;29;20024;-84
2022/03/10 07:12:45;;;;;;;131.65;87.30;;;51.40;2227.20;;;;;;4917936;29;20087;-83
2022/03/10 07:15:12;;;;;;;117.95;76.50;;;51.40;2227.20;;;;;;4917807;29;20028;-84
2022/03/10 07:17:39;;;;;;;114.82;71.65;;;51.40;2227.20;;;;;;4917608;29;20032;-80
2022/03/10 07:20:05;;;;;;;115.03;73.72;;;51.50;2227.20;;;;;;4918892;29;20035;-83
2022/03/10 07:22:31;;;;;;;113.70;72.68;;;51.90;2227.20;;;;;;4917542;29;20024;-82
2022/03/10 07:24:57;;;;;;;95.82;59.47;;;52.00;2227.20;;;;;;4917629;29;20031;-83
2022/03/10 07:27:23;;;;;;;98.00;64.40;;;52.10;2227.20;;;;;;4918518;29;20020;-81
2022/03/10 07:29:52;;;;;;;101.20;65.72;;;52.10;2227.20;;;;;;4917734;29;20459;-81
2022/03/10 07:32:18;;;;;;;107.10;66.75;;;52.10;2227.20;;;;;;4917625;29;20020;-81
2022/03/10 07:34:47;;;;;;;110.55;71.32;;;52.10;2227.20;;;;;;4917895;29;20036;-82
2022/03/10 07:37:15;;;;;;;73.25;49.38;;;76.90;2227.20;;;;;;4917691;29;20039;-84
2022/03/10 07:39:40;;;;;;;55.58;37.63;;;52.10;2227.20;;;;;;4917323;29;20024;-83
2022/03/10 07:42:06;;;;;;;108.07;70.28;;;52.10;2227.20;;;;;;4917996;29;20447;-79
2022/03/10 07:44:32;;;;;;;85.47;55.60;;;52.00;2227.20;;;;;;4917174;29;20030;-78
2022/03/10 07:46:58;;;;;;;82.30;54.25;;;52.10;2227.20;;;;;;4917286;29;20075;-77
2022/03/10 07:49:24;;;;;;;82.07;54.05;;;52.10;2227.20;;;;;;4916395;29;20032;-83
2022/03/10 07:51:50;;;;;;;97.90;67.30;;;52.10;2227.20;;;;;;4917181;29;20087;-82
2022/03/10 07:54:15;;;;;;;90.13;61.83;;;52.10;2227.20;;;;;;4916946;29;20056;-82
2022/03/10 07:56:41;;;;;;;89.32;61.28;;;76.80;2227.20;;;;;;4916711;29;20032;-83
2022/03/10 07:59:07;;;;;;;99.70;63.70;;;76.80;2227.20;;;;;;4917071;29;20028;-80
2022/03/10 08:01:33;;;;;;;81.00;53.67;;;52.10;2227.20;;;;;;4918183;29;20028;-81
2022/03/10 08:03:59;;;;;;;77.32;50.53;;;77.00;2227.20;;;;;;4916198;29;20039;-84
2022/03/10 08:06:26;;;;;;;79.57;50.88;;;77.10;2227.20;;;;;;4917099;29;20020;-81
2022/03/10 08:08:52;;;;;;;79.43;50.28;;;77.20;2227.20;;;;;;4914415;29;20047;-83
2022/03/10 08:11:18;;;;;;;69.70;45.97;;;77.30;2227.20;;;;;;4915997;29;20032;-82
2022/03/10 08:13:44;;;;;;;65.57;44.50;;;77.40;2227.20;;;;;;4915728;29;20025;-81
2022/03/10 08:16:10;;;;;;;64.38;42.33;;;77.60;2227.20;;;;;;4915654;29;20374;-79
2022/03/10 08:18:37;;;;;;;52.17;36.78;;;77.60;2227.20;;;;;;4914990;29;20559;-80
2022/03/10 08:21:02;;;;;;;55.20;35.03;;;77.60;2227.20;;;;;;4917031;29;20020;-79
2022/03/10 08:23:29;;;;;;;33.42;24.35;;;77.70;2227.20;;;;;;4915671;29;20028;-79
2022/03/10 08:25:55;;;;;;;34.92;24.80;;;77.60;2227.20;;;;;;4914879;29;20020;-79
2022/03/10 08:28:22;;;;;;;35.33;22.98;;;77.40;2227.20;;;;;;4915525;29;20028;-79
2022/03/10 08:30:48;;;;;;;39.05;25.67;;;77.50;2227.20;;;;;;4915572;29;20119;-80
2022/03/10 08:33:14;;;;;;;42.40;28.08;;;77.60;2227.20;;;;;;4915856;29;20024;-79
2022/03/10 08:35:40;;;;;;;32.42;21.75;;;77.70;2227.20;;;;;;4917320;29;20084;-80
2022/03/10 08:38:07;;;;;;;35.65;24.48;;;77.70;2227.20;;;;;;4915569;29;20032;-81
2022/03/10 08:40:32;;;;;;;40.50;29.98;;;102.50;2227.20;;;;;;4916086;29;20024;-80
2022/03/10 08:42:58;;;;;;;52.20;34.35;;;102.50;2227.20;;;;;;4917538;29;20099;-80
2022/03/10 08:45:27;;;;;;;43.65;26.50;;;102.50;2227.20;;;;;;4915056;29;20459;-82
2022/03/10 08:47:54;;;;;;;49.42;32.25;;;102.50;2227.20;;;;;;4915488;29;20406;-81
2022/03/10 08:50:22;;;;;;;35.95;23.08;;;102.50;2227.20;;;;;;4915856;29;20031;-78
2022/03/10 08:52:48;;;;;;;40.85;27.95;;;102.40;2227.20;;;;;;4916007;29;20434;-81
2022/03/10 08:55:14;;;;;;;41.03;27.15;;;102.40;2227.20;;;;;;4915903;29;20366;-80
2022/03/10 08:57:41;;;;;;;44.17;27.55;;;77.70;2227.20;;;;;;4916013;29;20355;-79
2022/03/10 09:00:09;;;;;;;34.90;20.90;;;102.70;2227.20;;;;;;4916718;29;20031;-77
2022/03/10 09:02:35;;;;;;;36.25;24.13;;;102.40;2227.20;;;;;;4915806;29;20410;-77
2022/03/10 09:05:01;;;;;;;32.03;21.77;;;102.50;2227.20;;;;;;4917281;29;20161;-75
2022/03/10 09:07:27;;;;;;;29.88;19.85;;;102.40;2227.20;;;;;;4916803;29;20023;-80
2022/03/10 09:09:53;;;;;;;40.42;22.85;;;102.50;2227.20;;;;;;4915988;29;20028;-78
2022/03/10 09:12:18;;;;;;;57.28;41.05;;;102.60;2227.20;;;;;;4916944;29;20094;-79
2022/03/10 09:14:44;;;;;;;72.70;48.22;;;102.60;2227.20;;;;;;4915942;29;20047;-77
2022/03/10 09:17:10;;;;;;;46.47;27.63;;;102.80;2227.20;;;;;;4916169;29;20454;-78
2022/03/10 09:19:36;;;;;;;33.03;21.42;;;102.80;2227.20;;;;;;4916882;29;20047;-77
2022/03/10 09:22:02;;;;;;;30.38;21.67;;;102.70;2227.20;;;;;;4915584;29;20024;-75
2022/03/10 09:24:30;;;;;;;33.75;22.77;;;102.90;2227.20;;;;;;4916863;29;20374;-77
2022/03/10 09:26:56;;;;;;;36.42;24.23;;;103.20;2227.20;;;;;;4916503;29;20024;-78
2022/03/10 09:29:22;;;;;;;49.13;31.17;;;128.00;2252.80;;;;;;4917059;29;20031;-76
2022/03/10 09:31:48;;;;;;;46.20;30.70;;;128.20;2252.80;;;;;;4919146;29;20471;-75
2022/03/10 09:34:14;;;;;;;30.80;21.67;;;128.20;2252.80;;;;;;4920119;29;20058;-77
2022/03/10 09:36:40;;;;;;;39.28;28.23;;;128.30;2252.80;;;;;;4920581;29;20052;-74
2022/03/10 09:39:06;;;;;;;34.45;22.02;;;128.30;2252.80;;;;;;4919095;29;20036;-77
2022/03/10 09:41:32;;;;;;;40.17;26.00;;;128.40;2252.80;;;;;;4920057;29;20107;-74
2022/03/10 09:43:59;;;;;;;29.58;20.92;;;128.50;2252.80;;;;;;4920811;29;20032;-76
2022/03/10 09:46:25;;;;;;;20.67;12.55;;;128.50;2252.80;;;;;;4919087;29;20132;-74
2022/03/10 09:48:52;;;;;;;36.92;23.85;;;128.50;2252.80;;;;;;4920211;29;20064;-81
2022/03/10 09:51:21;;;;;;;33.72;21.45;;;128.80;2252.80;;;;;;4920495;29;20028;-78
2022/03/10 09:53:47;;;;;;;19.33;14.05;;;128.80;2252.80;;;;;;4920176;29;20455;-74
2022/03/10 09:56:14;;;;;;;24.33;16.75;;;128.90;2252.80;;;;;;4919812;29;20164;-75
2022/03/10 09:58:39;;;;;;;17.48;11.27;;;153.60;2252.80;;;;;;4920297;29;20031;-79
2022/03/10 10:01:09;;;;;;;26.20;17.75;;;128.90;2252.80;;;;;;4919968;29;20020;-78
2022/03/10 10:03:35;;;;;;;20.42;14.02;;;153.60;2252.80;;;;;;4919644;29;20387;-74
2022/03/10 10:06:03;;;;;;;23.33;15.63;;;128.90;2252.80;;;;;;4918908;29;20467;-74
2022/03/10 10:08:38;;;;;;;29.98;20.02;;;128.90;2252.80;;;;;;4919718;29;20048;-76
2022/03/10 10:11:05;;;;;;;21.98;15.18;;;128.90;2252.80;;;;;;4919892;29;20027;-75
2022/03/10 10:13:43;;;;;;;137.93;68.95;;;128.80;2252.80;;;;;;4919599;29;20020;-77
2022/03/10 10:16:13;;;;;;;22.83;15.30;;;128.80;2252.80;;;;;;4919675;29;20474;-77
2022/03/10 10:18:40;;;;;;;22.80;17.27;;;128.80;2252.80;;;;;;4919983;29;20079;-78
2022/03/10 10:21:08;;;;;;;20.50;15.18;;;128.80;2252.80;;;;;;4918607;29;20028;-77
2022/03/10 10:23:37;;;;;;;19.70;13.77;;;128.70;2252.80;;;;;;4918250;29;20020;-76
2022/03/10 10:26:11;;;;;;;21.08;14.25;;;128.80;2252.80;;;;;;4919755;29;20016;-76
2022/03/10 10:28:48;;;;;;;24.45;16.48;;;128.90;2252.80;;;;;;4918364;29;20032;-76
2022/03/10 10:31:19;;;;;;;43.60;27.30;;;128.90;2252.80;;;;;;4919469;29;20024;-79
2022/03/10 10:33:58;;;;;;;25.25;17.98;;;128.90;2252.80;;;;;;4918449;29;20024;-78
2022/03/10 10:36:28;;;;;;;40.80;27.77;;;153.60;2252.80;;;;;;4919168;29;20489;-77
2022/03/10 10:39:16;;;;;;;33.17;22.17;;;153.60;2252.80;;;;;;4919353;29;20076;-77
2022/03/10 10:41:45;;;;;;;26.33;19.17;;;128.90;2252.80;;;;;;4918310;29;20024;-73
2022/03/10 10:44:16;;;;;;;27.38;18.50;;;128.90;2252.80;;;;;;4917751;29;20035;-77
2022/03/10 10:46:44;;;;;;;34.20;23.38;;;128.70;2252.80;;;;;;4919674;29;20067;-75
2022/03/10 10:49:15;;;;;;;19.50;13.77;;;128.90;2252.80;;;;;;4917949;29;20039;-75
2022/03/10 10:51:55;;;;;;;33.25;23.70;;;128.90;2252.80;;;;;;4918854;29;20028;-76
2022/03/10 10:54:23;;;;;;;33.88;21.55;;;128.80;2252.80;;;;;;4918019;29;20028;-75
2022/03/10 10:56:54;;;;;;;32.92;24.25;;;128.90;2252.80;;;;;;4917863;29;20122;-77
2022/03/10 10:59:28;;;;;;;33.38;23.48;;;128.90;2252.80;;;;;;4917598;29;20043;-76
2022/03/10 11:02:08;;;;;;;45.05;28.98;;;153.60;2252.80;;;;;;4919520;29;20028;-75
2022/03/10 11:04:34;;;;;;;53.53;31.95;;;153.60;2252.80;;;;;;4917440;29;20031;-75
2022/03/10 11:07:01;;;;;;;57.88;39.28;;;153.60;2252.80;;;;;;4919400;29;20024;-76
2022/03/10 11:09:26;;;;;;;28.10;19.42;;;153.60;2252.80;;;;;;4880930;29;1264998;-73
2022/03/10 11:11:53;;;;;;;27.67;17.80;;;128.80;2252.80;;;;;;4929948;29;20032;-77
2022/03/10 11:14:20;;;;;;;36.25;22.75;;;128.80;2227.20;;;;;;4917735;29;20542;-79
2022/03/10 11:16:47;;;;;;;38.58;22.00;;;128.90;2252.80;;;;;;4919158;29;20486;-77
2022/03/10 11:19:15;;;;;;;64.70;34.50;;;153.60;2252.80;;;;;;4918250;29;20529;-79
2022/03/10 11:22:24;;;;;;;51.78;28.98;;;153.70;2252.80;;;;;;4919063;29;20069;-76
2022/03/10 11:25:16;;;;;;;51.92;36.65;;;153.70;2252.80;;;;;;4917865;29;20024;-79
2022/03/10 11:27:50;;;;;;;51.30;34.60;;;153.70;2252.80;;;;;;4916890;29;20060;-77
2022/03/10 11:30:17;;;;;;;33.25;21.98;;;153.60;2227.20;;;;;;4917349;29;20266;-78
2022/03/10 11:32:58;;;;;;;25.38;17.40;;;153.80;2227.20;;;;;;4916993;29;20032;-76
2022/03/10 11:35:36;;;;;;;38.03;24.98;;;153.70;2201.60;;;;;;4917255;29;20027;-76
2022/03/10 11:38:02;;;;;;;23.08;16.45;;;154.00;2201.60;;;;;;4918693;29;20036;-74
2022/03/10 11:40:52;;;;;;;27.48;19.98;;;153.90;2124.80;;;;;;4916622;29;20024;-77
2022/03/10 11:43:39;;;;;;;22.10;14.82;;;153.90;2201.60;;;;;;4906411;29;20074;-76
2022/03/10 11:46:31;;;;;;;20.73;12.73;;;153.80;2150.40;;;;;;4918435;29;20020;-78
2022/03/10 11:49:05;;;;;;;23.33;15.30;;;154.10;2124.80;;;;;;4916783;29;20036;-75
2022/03/10 11:51:44;;;;;;;42.88;34.58;;;154.10;2099.20;;;;;;4918204;29;20354;-76
2022/03/10 11:54:11;;;;;;;34.90;26.02;;;154.10;2124.80;;;;;;4917371;29;20024;-75
2022/03/10 11:56:43;;;;;;;20.55;15.35;;;154.30;2099.20;;;;;;4918123;29;20025;-75
2022/03/10 11:59:32;;;;;;;23.77;16.17;;;154.20;2124.80;;;;;;4916889;29;20032;-76
2022/03/10 12:01:58;;;;;;;22.80;18.52;;;154.20;2073.60;;;;;;4916558;29;20024;-75
2022/03/10 12:04:38;;;;;;;19.45;14.35;;;154.00;2073.60;;;;;;4917690;29;20079;-74
2022/03/10 12:07:05;;;;;;;36.10;22.23;;;153.90;2099.20;;;;;;4917696;29;20423;-74
2022/03/10 12:09:39;;;;;;;20.92;14.65;;;153.80;2124.80;;;;;;4915780;29;20099;-75
2022/03/10 12:12:15;;;;;;;25.67;16.75;;;153.80;2099.20;;;;;;4917954;29;20035;-80